Time;durP1;ratioP1;P1;durP2;ratioP2;P2;SDS_P1;SDS_P2;PMS_P1;PMS_P2;Temp;Humidity;BMP_temperature;BMP_pressure;BME280_temperature;BME280_humidity;BME280_pressure;Samples;Min_cycle;Max_cycle;Signal;HPM_P1;HPM_P2
2022/01/01 00:01:32;;;;;;;443.67;271.40;;;230.60;2048.00;;;;;;5033606;28;20454;-62
2022/01/01 00:03:58;;;;;;;455.88;281.02;;;230.60;2048.00;;;;;;5033385;28;20092;-63
2022/01/01 00:06:24;;;;;;;429.42;261.00;;;230.60;2073.60;;;;;;5033516;28;20494;-64
2022/01/01 00:08:49;;;;;;;419.83;261.17;;;230.50;2073.60;;;;;;5033215;28;20101;-63
2022/01/01 00:11:15;;;;;;;402.75;248.05;;;230.60;2048.00;;;;;;5041966;28;20109;-64
2022/01/01 00:13:41;;;;;;;374.67;225.48;;;230.60;2073.60;;;;;;5041176;28;20024;-62
2022/01/01 00:16:09;;;;;;;359.27;210.85;;;230.50;2073.60;;;;;;5040335;28;20030;-62
2022/01/01 00:18:37;;;;;;;336.67;207.13;;;230.50;2073.60;;;;;;5033320;28;20017;-62
2022/01/01 00:21:04;;;;;;;329.80;193.25;;;230.50;2099.20;;;;;;5033351;28;20037;-62
2022/01/01 00:23:30;;;;;;;265.60;162.55;;;230.50;2073.60;;;;;;5032926;28;20467;-62
2022/01/01 00:25:56;;;;;;;252.57;148.40;;;230.50;2073.60;;;;;;5033378;28;20061;-63
2022/01/01 00:28:21;;;;;;;227.18;136.15;;;230.60;2099.20;;;;;;5032703;28;20364;-64
2022/01/01 00:30:47;;;;;;;200.50;123.60;;;230.50;2073.60;;;;;;5031803;28;20489;-63
2022/01/01 00:33:13;;;;;;;188.75;118.35;;;230.50;2099.20;;;;;;5033126;28;20022;-64
2022/01/01 00:35:40;;;;;;;202.15;124.20;;;230.50;2073.60;;;;;;5033218;28;20037;-65
2022/01/01 00:38:06;;;;;;;190.73;121.43;;;230.50;2073.60;;;;;;5033189;28;20379;-64
2022/01/01 00:40:32;;;;;;;187.13;118.07;;;230.50;2099.20;;;;;;5031437;28;20048;-63
2022/01/01 00:43:00;;;;;;;182.25;114.93;;;230.40;2099.20;;;;;;5033035;28;20018;-65
2022/01/01 00:45:25;;;;;;;181.85;111.30;;;230.40;2099.20;;;;;;5032987;28;20032;-63
2022/01/01 00:47:51;;;;;;;170.55;109.22;;;230.40;2124.80;;;;;;5034581;28;20026;-63
2022/01/01 00:50:17;;;;;;;184.55;115.72;;;230.40;2099.20;;;;;;5036692;28;20029;-62
2022/01/01 00:52:44;;;;;;;186.10;116.90;;;230.40;2124.80;;;;;;5036668;28;20033;-62
2022/01/01 00:55:10;;;;;;;190.18;118.72;;;230.40;2099.20;;;;;;5036839;28;20363;-63
2022/01/01 00:57:36;;;;;;;189.30;118.93;;;230.40;2099.20;;;;;;5036449;28;20049;-63
2022/01/01 01:00:04;;;;;;;203.02;121.88;;;230.40;2124.80;;;;;;5035891;28;20029;-69
2022/01/01 01:02:31;;;;;;;240.73;131.85;;;230.40;2099.20;;;;;;5036773;28;20108;-66
2022/01/01 01:04:57;;;;;;;215.40;126.72;;;230.50;2099.20;;;;;;5036507;28;20037;-64
2022/01/01 01:07:23;;;;;;;193.52;117.22;;;230.40;2099.20;;;;;;5035972;28;20018;-64
2022/01/01 01:09:49;;;;;;;221.60;123.60;;;230.40;2099.20;;;;;;5036188;28;20506;-64
2022/01/01 01:12:20;;;;;;;198.43;119.80;;;230.40;2099.20;;;;;;5035963;28;20075;-64
2022/01/01 01:14:46;;;;;;;188.05;113.22;;;205.70;2099.20;;;;;;5036113;28;20106;-64
2022/01/01 01:17:12;;;;;;;170.80;106.50;;;205.70;2099.20;;;;;;5035922;28;20373;-64
2022/01/01 01:19:38;;;;;;;181.32;109.15;;;230.40;2099.20;;;;;;5035940;28;20021;-64
2022/01/01 01:22:04;;;;;;;196.77;113.97;;;205.70;2099.20;;;;;;5035964;28;20036;-64
2022/01/01 01:24:30;;;;;;;211.40;120.15;;;205.70;2099.20;;;;;;5036159;28;20025;-64
2022/01/01 01:27:00;;;;;;;198.48;115.47;;;205.70;2099.20;;;;;;5035906;28;20386;-64
2022/01/01 01:29:26;;;;;;;174.10;103.88;;;205.60;2099.20;;;;;;5035692;28;20470;-64
2022/01/01 01:31:52;;;;;;;178.15;104.40;;;205.70;2124.80;;;;;;5035909;28;20031;-64
2022/01/01 01:34:18;;;;;;;169.68;102.45;;;205.70;2124.80;;;;;;5035845;28;20497;-64
2022/01/01 01:36:43;;;;;;;162.82;100.15;;;205.70;2099.20;;;;;;5035975;28;20060;-64
2022/01/01 01:39:09;;;;;;;163.25;99.80;;;205.70;2099.20;;;;;;5035054;28;20026;-64
2022/01/01 01:41:35;;;;;;;164.88;102.32;;;205.60;2099.20;;;;;;5035602;28;20044;-64
2022/01/01 01:44:03;;;;;;;173.63;106.80;;;205.70;2099.20;;;;;;5034175;28;20124;-64
2022/01/01 01:46:29;;;;;;;168.27;102.85;;;205.70;2124.80;;;;;;5035406;28;20047;-64
2022/01/01 01:48:55;;;;;;;190.57;113.90;;;205.60;2099.20;;;;;;5034353;28;20026;-64
2022/01/01 01:51:21;;;;;;;159.15;100.88;;;205.60;2124.80;;;;;;5034016;28;20116;-63
2022/01/01 01:53:47;;;;;;;177.65;107.47;;;205.60;2099.20;;;;;;5035555;28;20028;-64
2022/01/01 01:56:13;;;;;;;178.32;111.40;;;205.70;2073.60;;;;;;5035458;28;20026;-64
2022/01/01 01:58:39;;;;;;;180.18;111.53;;;205.70;2124.80;;;;;;5035186;28;20467;-64
2022/01/01 02:03:34;;;;;;;122.55;77.43;;;205.70;2099.20;;;;;;5035144;28;20013;-63
2022/01/01 02:06:00;;;;;;;109.53;70.63;;;205.70;2124.80;;;;;;5035177;28;20489;-63
2022/01/01 02:08:26;;;;;;;101.10;66.47;;;205.70;2124.80;;;;;;5035171;28;20030;-64
2022/01/01 02:10:53;;;;;;;93.43;62.72;;;205.70;2124.80;;;;;;5035127;28;20029;-64
2022/01/01 02:13:29;;;;;;;101.05;65.13;;;205.70;2124.80;;;;;;5035060;28;20026;-64
2022/01/01 02:18:21;;;;;;;102.68;67.15;;;205.70;2124.80;;;;;;5035124;28;20128;-64
2022/01/01 02:20:51;;;;;;;108.15;67.40;;;205.60;2099.20;;;;;;5033733;28;20534;-64
2022/01/01 02:23:17;;;;;;;97.03;64.70;;;205.70;2124.80;;;;;;5034990;28;20021;-64
2022/01/01 02:25:44;;;;;;;106.75;67.70;;;205.70;2124.80;;;;;;5034671;28;20025;-64
2022/01/01 02:28:11;;;;;;;104.28;67.22;;;205.70;2099.20;;;;;;5034897;28;20048;-68
2022/01/01 02:30:37;;;;;;;104.30;65.63;;;230.40;2099.20;;;;;;5034846;28;20090;-65
2022/01/01 02:33:03;;;;;;;108.97;69.88;;;205.70;2099.20;;;;;;5034568;28;20481;-63
2022/01/01 02:35:28;;;;;;;112.10;71.78;;;205.70;2099.20;;;;;;5034477;28;20033;-63
2022/01/01 02:37:54;;;;;;;101.05;66.10;;;205.70;2099.20;;;;;;5034854;28;20028;-64
2022/01/01 02:40:20;;;;;;;106.03;69.22;;;205.70;2099.20;;;;;;5034285;28;20080;-64
2022/01/01 02:42:46;;;;;;;103.05;67.65;;;205.70;2099.20;;;;;;5034593;28;20030;-63
2022/01/01 02:45:14;;;;;;;101.10;67.40;;;205.70;2099.20;;;;;;5034572;28;20486;-63
2022/01/01 02:47:40;;;;;;;102.75;68.03;;;205.70;2099.20;;;;;;5034549;28;20039;-63
2022/01/01 02:50:07;;;;;;;101.82;67.50;;;205.70;2099.20;;;;;;5034148;28;20426;-63
2022/01/01 02:52:33;;;;;;;98.25;66.95;;;205.70;2099.20;;;;;;5034177;28;20060;-63
2022/01/01 02:54:58;;;;;;;105.70;67.03;;;205.70;2099.20;;;;;;5033063;28;20021;-63
2022/01/01 02:57:24;;;;;;;102.60;70.03;;;205.60;2124.80;;;;;;5034118;28;20034;-63
2022/01/01 02:59:50;;;;;;;122.85;79.68;;;205.60;2099.20;;;;;;5033939;28;20021;-62
2022/01/01 03:02:16;;;;;;;158.77;94.25;;;205.60;2124.80;;;;;;5034219;28;20033;-63
2022/01/01 03:04:42;;;;;;;128.88;87.53;;;205.60;2124.80;;;;;;5034230;28;20024;-63
2022/01/01 03:07:07;;;;;;;163.38;102.95;;;205.60;2124.80;;;;;;5034199;28;20037;-62
2022/01/01 03:09:36;;;;;;;198.05;115.15;;;205.60;2124.80;;;;;;5033940;28;20026;-62
2022/01/01 03:12:09;;;;;;;140.48;91.03;;;205.60;2124.80;;;;;;5034215;28;20419;-62
2022/01/01 03:14:36;;;;;;;107.10;70.90;;;205.60;2099.20;;;;;;5034041;28;20025;-62
2022/01/01 03:17:03;;;;;;;110.93;72.25;;;205.60;2124.80;;;;;;5034085;28;20029;-61
2022/01/01 03:19:29;;;;;;;108.07;71.00;;;205.50;2099.20;;;;;;5033973;28;20025;-62
2022/01/01 03:21:55;;;;;;;139.45;87.15;;;205.60;2124.80;;;;;;5032413;28;20064;-62
2022/01/01 03:24:21;;;;;;;115.80;76.28;;;205.50;2124.80;;;;;;5033848;28;20029;-62
2022/01/01 03:26:47;;;;;;;124.05;79.80;;;205.50;2099.20;;;;;;5033670;28;20378;-62
2022/01/01 03:29:12;;;;;;;123.85;81.72;;;205.60;2124.80;;;;;;5033677;28;20025;-62
2022/01/01 03:31:38;;;;;;;154.52;98.28;;;205.50;2124.80;;;;;;5033839;28;20025;-62
2022/01/01 03:34:04;;;;;;;126.82;81.10;;;205.60;2124.80;;;;;;5033761;28;20379;-62
2022/01/01 03:36:30;;;;;;;120.07;77.63;;;205.60;2124.80;;;;;;5033756;28;20492;-62
2022/01/01 03:38:56;;;;;;;121.40;81.90;;;205.50;2099.20;;;;;;5033334;28;20075;-62
2022/01/01 03:41:22;;;;;;;120.03;79.47;;;205.50;2124.80;;;;;;5033197;28;20053;-62
2022/01/01 03:43:48;;;;;;;117.82;76.75;;;205.50;2124.80;;;;;;5033661;28;20039;-62
2022/01/01 03:46:14;;;;;;;105.93;72.60;;;205.50;2124.80;;;;;;5033574;28;20057;-62
2022/01/01 03:48:40;;;;;;;119.90;75.13;;;205.60;2150.40;;;;;;5031999;28;20061;-62
2022/01/01 03:51:06;;;;;;;108.57;70.90;;;205.50;2124.80;;;;;;5033625;28;20017;-62
2022/01/01 03:53:31;;;;;;;112.22;71.50;;;205.50;2124.80;;;;;;5033600;28;20103;-62
2022/01/01 03:55:58;;;;;;;111.68;71.00;;;205.60;2150.40;;;;;;5032897;28;20375;-63
2022/01/01 03:58:24;;;;;;;114.00;70.78;;;205.60;2124.80;;;;;;5033251;28;20103;-62
2022/01/01 04:00:50;;;;;;;123.70;74.57;;;205.60;2124.80;;;;;;5033407;28;20121;-62
2022/01/01 04:03:16;;;;;;;115.57;74.30;;;205.60;2124.80;;;;;;5033308;28;20113;-62
2022/01/01 04:05:43;;;;;;;101.65;67.93;;;205.60;2099.20;;;;;;5033180;28;20117;-62
2022/01/01 04:08:10;;;;;;;118.10;71.97;;;205.60;2124.80;;;;;;5033427;28;20372;-62
2022/01/01 04:10:36;;;;;;;103.68;67.40;;;205.60;2124.80;;;;;;5033453;28;20144;-62
2022/01/01 04:13:03;;;;;;;105.43;69.20;;;205.50;2124.80;;;;;;5033071;28;20544;-62
2022/01/01 04:15:30;;;;;;;103.55;66.50;;;205.60;2124.80;;;;;;5033175;28;20092;-62
2022/01/01 04:18:00;;;;;;;113.40;70.40;;;205.50;2099.20;;;;;;5033228;28;20036;-62
2022/01/01 04:20:27;;;;;;;115.90;68.78;;;205.60;2124.80;;;;;;5033257;28;20029;-62
2022/01/01 04:22:54;;;;;;;110.45;67.88;;;205.50;2124.80;;;;;;5034898;28;20029;-62
2022/01/01 04:25:21;;;;;;;126.95;73.80;;;205.50;2124.80;;;;;;5037481;28;20033;-62
2022/01/01 04:27:50;;;;;;;136.85;77.88;;;205.60;2124.80;;;;;;5037170;28;20056;-62
2022/01/01 04:30:16;;;;;;;141.90;85.35;;;205.60;2124.80;;;;;;5036839;28;20377;-62
2022/01/01 04:32:42;;;;;;;134.50;79.93;;;205.60;2124.80;;;;;;5036631;28;20021;-62
2022/01/01 04:35:08;;;;;;;128.95;76.43;;;205.60;2150.40;;;;;;5036975;28;20029;-63
2022/01/01 04:37:35;;;;;;;127.35;76.55;;;205.60;2124.80;;;;;;5036482;28;20534;-63
2022/01/01 04:40:02;;;;;;;125.65;74.68;;;205.60;2124.80;;;;;;5036503;28;20107;-63
2022/01/01 04:42:29;;;;;;;126.07;74.97;;;205.60;2150.40;;;;;;5036791;28;20021;-63
2022/01/01 04:44:55;;;;;;;131.50;76.15;;;205.60;2124.80;;;;;;5036717;28;20021;-63
2022/01/01 04:47:21;;;;;;;110.45;69.60;;;205.60;2124.80;;;;;;5036625;28;20080;-63
2022/01/01 04:49:46;;;;;;;112.03;67.40;;;205.60;2124.80;;;;;;5036833;28;20116;-62
2022/01/01 04:52:12;;;;;;;111.32;68.20;;;205.60;2150.40;;;;;;5036598;28;20028;-62
2022/01/01 04:54:43;;;;;;;112.22;69.18;;;205.60;2150.40;;;;;;5035252;28;20033;-62
2022/01/01 04:57:10;;;;;;;100.18;63.63;;;205.70;2124.80;;;;;;5036283;28;20522;-62
2022/01/01 04:59:37;;;;;;;97.30;64.50;;;205.70;2124.80;;;;;;5036471;28;20025;-62
2022/01/01 05:02:03;;;;;;;97.57;63.38;;;205.70;2124.80;;;;;;5036316;28;20163;-62
2022/01/01 05:04:29;;;;;;;100.80;65.18;;;230.40;2124.80;;;;;;5036605;28;20380;-61
2022/01/01 05:06:55;;;;;;;99.68;65.63;;;230.40;2124.80;;;;;;5036445;28;20091;-62
2022/01/01 05:09:21;;;;;;;101.47;67.15;;;205.70;2124.80;;;;;;5036412;28;20037;-63
2022/01/01 05:11:48;;;;;;;96.30;65.65;;;230.40;2124.80;;;;;;5036074;28;20030;-62
2022/01/01 05:14:15;;;;;;;104.43;67.78;;;230.40;2124.80;;;;;;5036087;28;20037;-62
2022/01/01 05:16:41;;;;;;;107.20;67.60;;;205.70;2124.80;;;;;;5036070;28;20025;-63
2022/01/01 05:19:07;;;;;;;102.15;64.28;;;230.40;2150.40;;;;;;5036199;28;20039;-66
2022/01/01 05:21:35;;;;;;;102.78;63.97;;;205.70;2124.80;;;;;;5035938;28;20033;-62
2022/01/01 05:24:02;;;;;;;99.13;61.35;;;230.40;2124.80;;;;;;5036133;28;20367;-62
2022/01/01 05:26:28;;;;;;;91.22;59.03;;;230.50;2176.00;;;;;;5035967;28;20412;-62
2022/01/01 05:28:54;;;;;;;96.63;57.95;;;230.60;2150.40;;;;;;5035882;28;20032;-62
2022/01/01 05:31:21;;;;;;;94.55;57.67;;;230.60;2150.40;;;;;;5036149;28;20025;-62
2022/01/01 05:33:47;;;;;;;92.03;56.60;;;230.60;2124.80;;;;;;5035667;28;20022;-62
2022/01/01 05:36:14;;;;;;;91.85;56.83;;;230.60;2150.40;;;;;;5034561;28;20029;-62
2022/01/01 05:38:44;;;;;;;96.32;56.05;;;230.70;2150.40;;;;;;5035769;28;20026;-62
2022/01/01 05:41:10;;;;;;;87.90;53.28;;;230.60;2124.80;;;;;;5035445;28;20046;-62
2022/01/01 05:43:36;;;;;;;91.13;53.50;;;230.70;2124.80;;;;;;5035815;28;20064;-62
2022/01/01 05:46:02;;;;;;;78.40;51.03;;;230.70;2124.80;;;;;;5035797;28;20022;-62
2022/01/01 05:48:28;;;;;;;81.03;50.35;;;230.70;2124.80;;;;;;5035709;28;20031;-62
2022/01/01 05:50:53;;;;;;;78.07;48.88;;;230.70;2124.80;;;;;;5034238;28;20037;-60
2022/01/01 05:53:19;;;;;;;72.40;47.25;;;230.70;2124.80;;;;;;5035463;28;20029;-60
2022/01/01 05:55:47;;;;;;;72.32;47.25;;;230.70;2124.80;;;;;;5035347;28;20026;-60
2022/01/01 05:58:12;;;;;;;70.78;45.53;;;230.80;2124.80;;;;;;5035170;28;20045;-60
2022/01/01 06:00:38;;;;;;;67.15;43.95;;;230.80;2099.20;;;;;;5035209;28;20064;-60
2022/01/01 06:03:04;;;;;;;65.78;43.00;;;230.80;2099.20;;;;;;5035365;28;20026;-60
2022/01/01 06:05:31;;;;;;;67.32;43.53;;;230.80;2073.60;;;;;;5035463;28;20061;-59
2022/01/01 06:07:58;;;;;;;59.90;40.90;;;230.80;2099.20;;;;;;5035233;28;20113;-60
2022/01/01 06:10:25;;;;;;;63.22;42.95;;;230.80;2099.20;;;;;;5035183;28;20028;-60
2022/01/01 06:12:52;;;;;;;62.35;41.72;;;230.70;2073.60;;;;;;5034887;28;20025;-59
2022/01/01 06:15:18;;;;;;;58.53;40.05;;;230.80;2099.20;;;;;;5035097;28;20037;-60
2022/01/01 06:17:44;;;;;;;54.97;38.67;;;230.80;2099.20;;;;;;5034905;28;20475;-60
2022/01/01 06:20:10;;;;;;;61.25;39.50;;;230.80;2099.20;;;;;;5035018;28;20037;-60
2022/01/01 06:22:36;;;;;;;61.35;39.67;;;230.80;2073.60;;;;;;5034505;28;20082;-60
2022/01/01 06:25:03;;;;;;;64.70;41.40;;;230.80;2073.60;;;;;;5035400;28;20025;-60
2022/01/01 06:27:28;;;;;;;55.63;38.75;;;230.80;2073.60;;;;;;5034937;28;20025;-60
2022/01/01 06:29:54;;;;;;;51.53;34.80;;;230.80;2073.60;;;;;;5034534;28;20175;-60
2022/01/01 06:32:20;;;;;;;51.17;33.95;;;230.80;2073.60;;;;;;5034787;28;20030;-60
2022/01/01 06:34:45;;;;;;;44.58;31.77;;;230.80;2073.60;;;;;;5035211;28;20044;-60
2022/01/01 06:37:11;;;;;;;46.95;32.63;;;230.80;2048.00;;;;;;5034555;28;20152;-60
2022/01/01 06:39:37;;;;;;;43.35;31.90;;;230.80;2073.60;;;;;;5034446;28;20042;-60
2022/01/01 06:42:03;;;;;;;42.15;30.77;;;230.80;2073.60;;;;;;5034326;28;20360;-60
2022/01/01 06:44:29;;;;;;;44.75;30.52;;;230.80;2048.00;;;;;;5033905;28;20026;-59
2022/01/01 06:46:54;;;;;;;54.95;37.63;;;230.80;2048.00;;;;;;5033620;28;20028;-60
2022/01/01 06:49:20;;;;;;;52.20;35.20;;;230.80;2048.00;;;;;;5034471;28;20021;-60
2022/01/01 06:51:46;;;;;;;54.08;35.75;;;230.80;2048.00;;;;;;5034348;28;20467;-60
2022/01/01 06:54:12;;;;;;;44.60;32.60;;;230.80;2073.60;;;;;;5034125;28;20032;-60
2022/01/01 06:56:38;;;;;;;43.65;30.98;;;230.70;2048.00;;;;;;5034300;28;20017;-60
2022/01/01 06:59:03;;;;;;;42.55;32.17;;;230.80;2048.00;;;;;;5033959;28;20383;-60
2022/01/01 07:01:29;;;;;;;44.38;31.58;;;230.80;2048.00;;;;;;5034311;28;20033;-59
2022/01/01 07:03:56;;;;;;;38.80;29.40;;;230.80;2048.00;;;;;;5032922;28;20033;-59
2022/01/01 07:06:21;;;;;;;46.80;30.75;;;230.80;2048.00;;;;;;5033957;28;20117;-60
2022/01/01 07:08:47;;;;;;;38.65;28.75;;;230.80;2048.00;;;;;;5034466;28;20109;-60
2022/01/01 07:11:13;;;;;;;42.33;29.67;;;230.70;2048.00;;;;;;5034293;28;20037;-59
2022/01/01 07:13:38;;;;;;;40.92;30.00;;;230.70;2048.00;;;;;;5034032;28;20101;-59
2022/01/01 07:16:05;;;;;;;41.30;28.52;;;230.80;2048.00;;;;;;5034113;28;20026;-60
2022/01/01 07:18:31;;;;;;;36.10;25.75;;;230.80;2022.40;;;;;;5033864;28;20498;-60
2022/01/01 07:20:57;;;;;;;38.38;26.95;;;230.80;2022.40;;;;;;5033839;28;20034;-60
2022/01/01 07:23:23;;;;;;;41.47;27.75;;;230.70;2048.00;;;;;;5033530;28;20083;-60
2022/01/01 07:25:49;;;;;;;40.13;25.85;;;230.70;2048.00;;;;;;5033906;28;20418;-60
2022/01/01 07:28:16;;;;;;;38.05;26.50;;;230.70;2048.00;;;;;;5033873;28;20025;-60
2022/01/01 07:30:43;;;;;;;34.05;24.25;;;230.70;2048.00;;;;;;5033641;28;20026;-60
2022/01/01 07:33:12;;;;;;;33.25;24.33;;;230.80;2022.40;;;;;;5033704;28;20026;-60
2022/01/01 07:35:39;;;;;;;29.48;22.27;;;230.80;2048.00;;;;;;5033740;28;20053;-59
2022/01/01 07:38:04;;;;;;;31.05;21.67;;;230.80;2048.00;;;;;;5033710;28;20022;-60
2022/01/01 07:40:32;;;;;;;31.08;22.30;;;230.80;2048.00;;;;;;5033583;28;20108;-60
2022/01/01 07:42:58;;;;;;;30.65;22.33;;;230.80;2048.00;;;;;;5033218;28;20038;-60
2022/01/01 07:45:24;;;;;;;33.25;22.40;;;230.90;2048.00;;;;;;5033614;28;20021;-60
2022/01/01 07:47:49;;;;;;;34.95;23.13;;;230.90;2048.00;;;;;;5033540;28;20029;-65
2022/01/01 07:50:15;;;;;;;36.65;23.80;;;231.00;2073.60;;;;;;5033201;28;20038;-59
2022/01/01 07:52:42;;;;;;;36.50;24.73;;;231.00;2048.00;;;;;;5033507;28;20463;-59
2022/01/01 07:55:08;;;;;;;33.88;22.48;;;231.00;2073.60;;;;;;5033495;28;20613;-59
2022/01/01 07:57:34;;;;;;;28.42;20.45;;;231.10;2048.00;;;;;;5036203;28;20459;-59
2022/01/01 08:00:00;;;;;;;28.17;20.27;;;231.00;2048.00;;;;;;5037278;28;20036;-59
2022/01/01 08:02:26;;;;;;;30.42;20.88;;;231.10;2048.00;;;;;;5037388;28;20037;-59
2022/01/01 08:04:52;;;;;;;33.75;21.73;;;231.10;2048.00;;;;;;5037905;28;20029;-59
2022/01/01 08:07:17;;;;;;;34.17;21.48;;;231.20;2073.60;;;;;;5037440;28;20032;-60
2022/01/01 08:09:43;;;;;;;36.53;21.35;;;231.20;2073.60;;;;;;5037097;28;20021;-59
2022/01/01 08:12:09;;;;;;;32.60;21.05;;;231.20;2073.60;;;;;;5037410;28;20033;-59
2022/01/01 08:14:35;;;;;;;27.15;19.05;;;231.20;2073.60;;;;;;5035602;28;20032;-59
2022/01/01 08:17:05;;;;;;;33.38;21.45;;;231.30;2073.60;;;;;;5037190;28;20434;-59
2022/01/01 08:19:32;;;;;;;27.15;18.52;;;231.30;2099.20;;;;;;5037199;28;20108;-60
2022/01/01 08:21:57;;;;;;;25.77;17.83;;;256.00;2099.20;;;;;;5037039;28;20037;-60
2022/01/01 08:24:24;;;;;;;29.60;18.70;;;256.00;2099.20;;;;;;5037607;28;20359;-65
2022/01/01 08:26:50;;;;;;;27.60;18.88;;;256.10;2124.80;;;;;;5036931;28;20026;-60
2022/01/01 08:29:16;;;;;;;37.33;21.50;;;256.20;2124.80;;;;;;5035610;28;20030;-59
2022/01/01 08:31:42;;;;;;;40.05;22.88;;;256.30;2124.80;;;;;;5036897;28;20106;-59
2022/01/01 08:34:08;;;;;;;40.60;24.20;;;256.40;2124.80;;;;;;5035422;28;20129;-60
2022/01/01 08:36:34;;;;;;;52.97;30.55;;;256.40;2124.80;;;;;;5037018;28;20029;-60
2022/01/01 08:39:00;;;;;;;45.38;28.08;;;256.50;2124.80;;;;;;5036869;28;20025;-60
2022/01/01 08:41:26;;;;;;;38.58;24.00;;;256.60;2124.80;;;;;;5036894;28;20060;-59
2022/01/01 08:43:53;;;;;;;42.25;25.10;;;256.60;2150.40;;;;;;5036742;28;20025;-60
2022/01/01 08:46:18;;;;;;;36.80;23.25;;;256.70;2124.80;;;;;;5036763;28;20029;-61
2022/01/01 08:48:44;;;;;;;40.80;20.88;;;256.80;2176.00;;;;;;5035286;28;20035;-60
2022/01/01 08:51:21;;;;;;;31.30;19.25;;;256.90;2150.40;;;;;;5036520;28;20049;-62
2022/01/01 08:53:48;;;;;;;31.13;19.13;;;281.60;2176.00;;;;;;5041457;28;20119;-62
2022/01/01 08:56:14;;;;;;;28.33;18.23;;;281.70;2176.00;;;;;;5056404;28;20055;-62
2022/01/01 08:58:40;;;;;;;22.50;16.10;;;281.80;2176.00;;;;;;5056451;28;20025;-62
2022/01/01 09:01:07;;;;;;;22.70;16.60;;;281.80;2176.00;;;;;;5055885;28;20040;-63
2022/01/01 09:03:37;;;;;;;24.88;15.88;;;281.90;2176.00;;;;;;5056723;28;20366;-69
2022/01/01 09:06:05;;;;;;;24.10;15.30;;;282.00;2227.20;;;;;;5056437;28;20032;-70
2022/01/01 09:08:32;;;;;;;23.27;14.65;;;282.20;2227.20;;;;;;5055568;28;20029;-62
2022/01/01 09:10:59;;;;;;;20.85;13.68;;;282.40;2252.80;;;;;;5056011;28;20501;-65
2022/01/01 09:13:24;;;;;;;21.23;12.65;;;307.20;2304.00;;;;;;5055963;28;20025;-66
2022/01/01 09:15:50;;;;;;;57.85;20.42;;;307.30;2252.80;;;;;;5054912;28;20040;-65
2022/01/01 09:18:16;;;;;;;26.95;14.48;;;307.50;2252.80;;;;;;5056163;28;20017;-66
2022/01/01 09:20:41;;;;;;;21.92;12.02;;;307.70;2227.20;;;;;;5055355;28;20041;-65
2022/01/01 09:23:07;;;;;;;17.85;11.65;;;307.70;2201.60;;;;;;5055968;28;20039;-65
2022/01/01 09:25:33;;;;;;;21.90;10.52;;;307.80;2201.60;;;;;;5054604;28;20037;-65
2022/01/01 09:27:59;;;;;;;16.95;10.77;;;307.90;2176.00;;;;;;5055715;28;20029;-64
2022/01/01 09:30:25;;;;;;;21.10;11.73;;;307.90;2176.00;;;;;;5055534;28;20023;-66
2022/01/01 09:32:51;;;;;;;25.02;12.52;;;308.00;2176.00;;;;;;5055602;28;20541;-65
2022/01/01 09:35:18;;;;;;;26.00;13.02;;;308.10;2201.60;;;;;;5055659;28;20025;-64
2022/01/01 09:37:44;;;;;;;27.27;13.65;;;332.80;2227.20;;;;;;5055828;28;20029;-65
2022/01/01 09:40:10;;;;;;;20.67;13.60;;;332.90;2227.20;;;;;;5055188;28;20394;-64
2022/01/01 09:42:36;;;;;;;16.05;10.43;;;333.00;2227.20;;;;;;5055510;28;20025;-64
2022/01/01 09:45:06;;;;;;;16.60;10.07;;;333.00;2201.60;;;;;;5055638;28;20029;-66
2022/01/01 09:47:31;;;;;;;14.98;9.60;;;333.10;2176.00;;;;;;5055620;28;20082;-65
2022/01/01 09:49:57;;;;;;;16.77;9.65;;;333.20;2176.00;;;;;;5055473;28;20029;-64
2022/01/01 09:52:24;;;;;;;12.43;9.18;;;333.20;2176.00;;;;;;5055490;28;20021;-65
2022/01/01 09:54:50;;;;;;;10.88;8.63;;;333.30;2176.00;;;;;;5055432;28;20021;-64
2022/01/01 09:57:16;;;;;;;17.83;9.68;;;333.40;2176.00;;;;;;5055156;28;20490;-64
2022/01/01 09:59:42;;;;;;;16.98;9.38;;;333.50;2176.00;;;;;;5055362;28;20025;-64
2022/01/01 10:02:08;;;;;;;12.80;8.30;;;333.50;2150.40;;;;;;5055318;28;20036;-64
2022/01/01 10:05:04;;;;;;;10.60;7.28;;;333.60;2124.80;;;;;;5055345;28;20082;-62
2022/01/01 10:07:30;;;;;;;12.05;8.60;;;333.70;2124.80;;;;;;5054409;28;20037;-64
2022/01/01 10:09:56;;;;;;;13.95;9.40;;;333.70;2124.80;;;;;;5055064;28;20029;-64
2022/01/01 10:12:38;;;;;;;13.90;8.63;;;358.40;2124.80;;;;;;5055134;28;20026;-65
2022/01/01 10:15:07;;;;;;;12.43;7.80;;;358.40;2124.80;;;;;;5055101;28;20028;-65
2022/01/01 10:17:34;;;;;;;12.77;8.43;;;358.50;2099.20;;;;;;5054988;28;20036;-64
2022/01/01 10:19:59;;;;;;;14.88;8.30;;;358.60;2099.20;;;;;;5053808;28;20017;-64
2022/01/01 10:22:25;;;;;;;10.98;7.25;;;358.70;2099.20;;;;;;5054886;28;20481;-65
2022/01/01 10:28:02;;;;;;;13.82;7.78;;;358.70;2073.60;;;;;;5055060;28;20386;-64
2022/01/01 10:30:36;;;;;;;10.07;6.28;;;358.90;2073.60;;;;;;5054460;28;20037;-65
2022/01/01 10:33:09;;;;;;;8.32;6.10;;;358.90;2073.60;;;;;;5054712;28;20035;-65
2022/01/01 10:35:56;;;;;;;11.80;7.28;;;358.90;2073.60;;;;;;5054688;28;20033;-65
2022/01/01 10:38:27;;;;;;;7.82;6.07;;;358.90;2073.60;;;;;;5053477;28;20035;-65
2022/01/01 10:41:06;;;;;;;8.63;5.75;;;359.00;2048.00;;;;;;5052431;28;20068;-64
2022/01/01 10:43:40;;;;;;;11.43;7.30;;;359.10;2048.00;;;;;;5054378;28;20029;-65
2022/01/01 10:46:07;;;;;;;12.00;7.78;;;359.10;2048.00;;;;;;5054373;28;20021;-65
2022/01/01 10:51:07;;;;;;;15.00;9.27;;;359.10;2048.00;;;;;;5054340;28;20049;-64
2022/01/01 10:53:34;;;;;;;12.25;9.05;;;359.20;2048.00;;;;;;5054428;28;20430;-65
2022/01/01 10:56:02;;;;;;;15.48;9.18;;;359.30;2048.00;;;;;;5054123;28;20052;-65
2022/01/01 10:58:32;;;;;;;12.77;8.38;;;359.30;2048.00;;;;;;5054038;28;20029;-65
2022/01/01 11:01:07;;;;;;;9.82;6.90;;;359.30;2048.00;;;;;;5054434;28;20090;-65
2022/01/01 11:03:43;;;;;;;15.55;7.53;;;384.00;2048.00;;;;;;5054226;28;20106;-65
2022/01/01 11:06:10;;;;;;;9.25;6.95;;;384.00;2048.00;;;;;;5052758;28;20033;-65
2022/01/01 11:08:42;;;;;;;11.68;7.43;;;384.00;2048.00;;;;;;5052402;28;20032;-65
2022/01/01 11:11:10;;;;;;;9.57;6.88;;;384.10;2022.40;;;;;;5054105;28;20033;-66
2022/01/01 11:13:36;;;;;;;9.23;6.63;;;384.10;2048.00;;;;;;5052297;28;20378;-65
2022/01/01 11:16:04;;;;;;;12.02;7.68;;;384.20;2022.40;;;;;;5053920;28;20032;-65
2022/01/01 11:18:31;;;;;;;9.65;6.82;;;384.20;2022.40;;;;;;5053953;28;20139;-65
2022/01/01 11:20:58;;;;;;;10.02;7.32;;;384.20;2022.40;;;;;;5053858;28;20045;-65
2022/01/01 11:23:26;;;;;;;12.65;7.18;;;384.40;2022.40;;;;;;5053684;28;20490;-65
2022/01/01 11:25:52;;;;;;;10.93;7.03;;;384.30;1996.80;;;;;;5053865;28;20060;-65
2022/01/01 11:28:19;;;;;;;10.95;7.03;;;384.40;1996.80;;;;;;5053731;28;20466;-65
2022/01/01 11:31:01;;;;;;;11.23;7.07;;;384.40;1996.80;;;;;;5053473;28;20490;-65
2022/01/01 11:33:32;;;;;;;12.43;8.32;;;384.40;1971.20;;;;;;5053749;28;20048;-65
2022/01/01 11:35:59;;;;;;;15.52;9.45;;;384.40;1971.20;;;;;;5053535;28;20029;-65
2022/01/01 11:38:27;;;;;;;15.85;9.48;;;384.50;1971.20;;;;;;5053308;28;20041;-65
2022/01/01 11:40:59;;;;;;;12.88;9.57;;;384.50;1971.20;;;;;;5052029;28;20045;-65
2022/01/01 11:43:39;;;;;;;17.53;11.10;;;384.50;1971.20;;;;;;5053746;28;20060;-65
2022/01/01 11:46:06;;;;;;;18.02;10.00;;;384.50;1971.20;;;;;;5053453;28;20048;-65
2022/01/01 11:48:45;;;;;;;15.00;9.55;;;384.60;1971.20;;;;;;5053387;28;20029;-65
2022/01/01 11:51:48;;;;;;;12.10;8.30;;;384.60;1971.20;;;;;;5053304;28;20032;-65
2022/01/01 11:54:14;;;;;;;19.10;8.18;;;384.60;1971.20;;;;;;5053438;28;20029;-66
2022/01/01 11:56:58;;;;;;;14.43;7.75;;;384.70;1971.20;;;;;;5053462;28;20032;-71
2022/01/01 11:59:49;;;;;;;14.50;8.20;;;384.70;1945.60;;;;;;5053287;28;20021;-62
2022/01/01 12:02:18;;;;;;;14.02;8.50;;;384.80;1945.60;;;;;;5053056;28;20087;-63
2022/01/01 12:04:45;;;;;;;13.70;7.78;;;384.80;1945.60;;;;;;5044858;28;20376;-65
2022/01/01 12:07:20;;;;;;;13.18;8.32;;;384.80;1920.00;;;;;;5042625;28;20028;-65